Depesze METAR lotnisk w Polsce

METAR – format kodowanego raportu o pogodzie używany w meteorologii lotniczej i prognozie pogody. METAR jest akronimem od ang. Meteorological Aerodrome Report. Typowy METAR zawiera informację o temperaturze, ciśnieniu, temperaturze punktu rosy, sile i kierunku wiatru, opadzie, pokrywie chmur, wysokości podstawy chmur, widzialności, lecz może zawierać też inne informacje (np. stan dróg startowych).

Warszawa-Okęcie (EPWA)

METAR = EPWA 192030Z 04003KT CAVOK 13/10 Q1016 NOSIG

STACJA......... EPWA - Warszawa-Okęcie (WAW)
POMIAR......... Tue Sep 19, 22:30 CEST
WIATR.......... północno-wschodni (NE) z prędkością 6 km/h
WIDZIALNOŚĆ.... powyżej 10 kilometrów
CHMURY......... bezchmurne niebo
TEMPERATURA.... 13°C
T.PUNKTU ROSY.. 10°C
WILGOTNOŚĆ..... 82%
CIŚNIENIE...... 1016 hPa
CIŚN.BEZWZGL... 1003 hPa
PROGNOZA....... bez nagłych zmian w ciągu 2h

Sprawdź też: Prognoza pogody Warszawa

Warszawa-Modlin (EPMO)

METAR = EPMO 192030Z VRB02KT 8000 NSC 10/10 Q1017 =

STACJA......... EPMO - Warszawa-Modlin (WMI)
POMIAR......... Tue Sep 19, 22:30 CEST
WIATR.......... zmienny z prędkością 4 km/h
WIDZIALNOŚĆ.... 8000 metrów
CHMURY......... brak istotnych chmur
TEMPERATURA.... 10°C
T.PUNKTU ROSY.. 10°C
WILGOTNOŚĆ..... 100%
CIŚNIENIE...... 1017 hPa
CIŚN.BEZWZGL... 1004 hPa

Sprawdź też: Prognoza pogody Nowy Dwór Mazowiecki

Kraków-Balice (EPKK)

METAR = EPKK 192030Z 02012KT 8000 -RA BKN019 11/10 Q1014

STACJA......... EPKK - Kraków-Balice (KRK)
POMIAR......... Tue Sep 19, 22:30 CEST
WIATR.......... północno północno-wschodni (NNE) z prędkością 22 km/h
WIDZIALNOŚĆ.... 8000 metrów
WARUNKI........ słaby: deszcz 
CHMURY......... zachmurzenie średnie (5/8-7/8)
TEMPERATURA.... 11°C
T.PUNKTU ROSY.. 10°C
WILGOTNOŚĆ..... 94%
CIŚNIENIE...... 1014 hPa
CIŚN.BEZWZGL... 985 hPa

Sprawdź też: Prognoza pogody Kraków

Łódź-Lublinek (EPLL)

METAR = EPLL 192030Z VRB01KT CAVOK 13/08 Q1016

STACJA......... EPLL - Łódź-Lublinek (LCJ)
POMIAR......... Tue Sep 19, 22:30 CEST
WIATR.......... zmienny z prędkością 2 km/h
WIDZIALNOŚĆ.... powyżej 10 kilometrów
CHMURY......... bezchmurne niebo
TEMPERATURA.... 13°C
T.PUNKTU ROSY.. 8°C
WILGOTNOŚĆ..... 72%
CIŚNIENIE...... 1016 hPa
CIŚN.BEZWZGL... 994 hPa

Sprawdź też: Prognoza pogody Łódź

Wrocław-Strachowice (EPWR)

METAR = EPWR 192030Z 31004KT CAVOK 08/07 Q1016

STACJA......... EPWR - Wrocław-Strachowice (WRO)
POMIAR......... Tue Sep 19, 22:30 CEST
WIATR.......... północno zachodni (NW) z prędkością 7 km/h
WIDZIALNOŚĆ.... powyżej 10 kilometrów
CHMURY......... bezchmurne niebo
TEMPERATURA.... 8°C
T.PUNKTU ROSY.. 7°C
WILGOTNOŚĆ..... 93%
T.ODCZUWALNA... 7°C
CIŚNIENIE...... 1016 hPa
CIŚN.BEZWZGL... 1001 hPa

Sprawdź też: Prognoza pogody Wrocław

Katowice-Pyrzowice (EPKT)

METAR = EPKT 192030Z 02007KT 9999 -RA OVC047 10/09 Q1015

STACJA......... EPKT - Katowice-Pyrzowice (KTW)
POMIAR......... Tue Sep 19, 22:30 CEST
WIATR.......... północno północno-wschodni (NNE) z prędkością 13 km/h
WIDZIALNOŚĆ.... powyżej 10 kilometrów
WARUNKI........ słaby: deszcz 
CHMURY......... zachmurzenie całkowite (8/8)
TEMPERATURA.... 10°C
T.PUNKTU ROSY.. 9°C
WILGOTNOŚĆ..... 94%
T.ODCZUWALNA... 8°C
CIŚNIENIE...... 1015 hPa
CIŚN.BEZWZGL... 979 hPa

Sprawdź też: Prognoza pogody Katowice

Gdańsk (EPGD)

METAR = EPGD 192030Z VRB02KT 7000 FEW039 09/08 Q1016

STACJA......... EPGD - Gdańsk im. Lecha Wałęsy (GDN)
POMIAR......... Tue Sep 19, 22:30 CEST
WIATR.......... zmienny z prędkością 4 km/h
WIDZIALNOŚĆ.... 7000 metrów
CHMURY......... zachmurzenie niewielkie (1/8-2/8)
TEMPERATURA.... 9°C
T.PUNKTU ROSY.. 8°C
WILGOTNOŚĆ..... 94%
CIŚNIENIE...... 1016 hPa
CIŚN.BEZWZGL... 998 hPa

Sprawdź też: Prognoza pogody Gdańsk

Poznań-Ławica (EPPO)

METAR = EPPO 192030Z 00000KT CAVOK 09/08 Q1017

STACJA......... EPPO - Poznań-Ławica (POZ)
POMIAR......... Tue Sep 19, 22:30 CEST
WIATR.......... bezwietrznie
WIDZIALNOŚĆ.... powyżej 10 kilometrów
CHMURY......... bezchmurne niebo
TEMPERATURA.... 9°C
T.PUNKTU ROSY.. 8°C
WILGOTNOŚĆ..... 94%
CIŚNIENIE...... 1017 hPa
CIŚN.BEZWZGL... 1006 hPa

Sprawdź też: Prognoza pogody Poznań

Rzeszów-Jasionka (EPRZ)

METAR = EPRZ 192030Z 04009KT 9999 OVC023 12/10 Q1013

STACJA......... EPRZ - Rzeszów-Jasionka (RZE)
POMIAR......... Tue Sep 19, 22:30 CEST
WIATR.......... północno-wschodni (NE) z prędkością 17 km/h
WIDZIALNOŚĆ.... powyżej 10 kilometrów
CHMURY......... zachmurzenie całkowite (8/8)
TEMPERATURA.... 12°C
T.PUNKTU ROSY.. 10°C
WILGOTNOŚĆ..... 88%
CIŚNIENIE...... 1013 hPa
CIŚN.BEZWZGL... 988 hPa

Sprawdź też: Prognoza pogody Rzeszów

Szczecin-Goleniów (EPSC)

METAR = EPSC 192030Z 10002KT 9999 MIFG NSC 08/08 Q1016

STACJA......... EPSC - Szczecin-Goleniów (SZZ)
POMIAR......... Tue Sep 19, 22:30 CEST
WIATR.......... wschodni (E) z prędkością 4 km/h
WIDZIALNOŚĆ.... powyżej 10 kilometrów
WARUNKI........ niska mgła 
CHMURY......... brak istotnych chmur
TEMPERATURA.... 8°C
T.PUNKTU ROSY.. 8°C
WILGOTNOŚĆ..... 100%
CIŚNIENIE...... 1016 hPa
CIŚN.BEZWZGL... 1010 hPa

Sprawdź też: Prognoza pogody Szczecin

Lublin-Świdnik (EPLB)

METAR = EPLB 192030Z 03007KT 9999 FEW035 SCT045 13/11 Q1016 =

STACJA......... EPLB - Lublin-Świdnik (LUZ)
POMIAR......... Tue Sep 19, 22:30 CEST
WIATR.......... północno północno-wschodni (NNE) z prędkością 13 km/h
WIDZIALNOŚĆ.... powyżej 10 kilometrów
CHMURY......... zachmurzenie małe (3/8-4/8)
TEMPERATURA.... 13°C
T.PUNKTU ROSY.. 11°C
WILGOTNOŚĆ..... 88%
CIŚNIENIE...... 1016 hPa
CIŚN.BEZWZGL... 992 hPa

Sprawdź też: Prognoza pogody Lublin

Bydgoszcz-Szwederowo (EPBY)

METAR = EPBY 192030Z 00000KT CAVOK 07/07 Q1016 =

STACJA......... EPBY - Bydgoszcz-Szwederowo (BZG)
POMIAR......... Tue Sep 19, 22:30 CEST
WIATR.......... bezwietrznie
WIDZIALNOŚĆ.... powyżej 10 kilometrów
CHMURY......... bezchmurne niebo
TEMPERATURA.... 7°C
T.PUNKTU ROSY.. 7°C
WILGOTNOŚĆ..... 100%
CIŚNIENIE...... 1016 hPa
CIŚN.BEZWZGL... 1007 hPa

Sprawdź też: Prognoza pogody Bydgoszcz

Zielona Góra-Babimost (EPZG)

METAR = EPZG 192030Z 22002KT CAVOK 08/07 Q1017 =

STACJA......... EPZG - Zielona Góra-Babimost (IEG)
POMIAR......... Tue Sep 19, 22:30 CEST
WIATR.......... południowo-zachodni (SW) z prędkością 4 km/h
WIDZIALNOŚĆ.... powyżej 10 kilometrów
CHMURY......... bezchmurne niebo
TEMPERATURA.... 8°C
T.PUNKTU ROSY.. 7°C
WILGOTNOŚĆ..... 93%
CIŚNIENIE...... 1017 hPa
CIŚN.BEZWZGL... 1010 hPa

Sprawdź też: Prognoza pogody Zielona Góra

Szymany Olsztyn-Mazury (EPSY)

METAR = EPSY 192030Z NIL=

STACJA......... EPSY - Olsztyn-Mazury (SZY)
POMIAR......... Tue Sep 19, 22:30 CEST
DEPESZA........ brak aktualnej prognozy w treści depeszy

Sprawdź też: Prognoza pogody Olsztyn